createdAt,value
2023-03-08T00:02:18.527Z,43.11
2023-03-08T00:04:45.388Z,43.22
2023-03-08T00:07:12.456Z,43.04
2023-03-08T00:09:39.466Z,43.11
2023-03-08T00:12:07.550Z,43.34
2023-03-08T00:14:34.431Z,43.18
2023-03-08T00:17:02.600Z,43.26
2023-03-08T00:19:29.570Z,43.36
2023-03-08T00:21:56.971Z,43.55
2023-03-08T00:24:26.198Z,43.35
2023-03-08T00:26:53.075Z,43.33
2023-03-08T00:29:19.924Z,43.25
2023-03-08T00:31:46.785Z,43.45
2023-03-08T00:34:13.679Z,43.50
2023-03-08T00:36:41.186Z,43.42
2023-03-08T00:39:09.424Z,43.69
2023-03-08T00:41:37.557Z,43.63
2023-03-08T00:44:04.734Z,43.76
2023-03-08T00:46:31.736Z,44.05
2023-03-08T00:48:58.831Z,43.94
2023-03-08T00:51:26.322Z,44.13
2023-03-08T00:53:53.575Z,44.20
2023-03-08T00:56:21.405Z,44.13
2023-03-08T00:58:48.259Z,44.28
2023-03-08T01:01:18.141Z,44.51
2023-03-08T01:03:47.386Z,44.42
2023-03-08T01:06:15.922Z,44.47
2023-03-08T01:08:42.933Z,44.59
2023-03-08T01:11:37.290Z,44.77
2023-03-08T01:14:06.275Z,44.90
2023-03-08T01:16:35.402Z,45.22
2023-03-08T01:19:04.496Z,45.30
2023-03-08T01:21:32.308Z,45.41
2023-03-08T01:23:59.358Z,45.56
2023-03-08T01:26:28.417Z,45.70
2023-03-08T01:28:56.546Z,45.81
2023-03-08T01:31:33.749Z,46.00
2023-03-08T01:34:00.896Z,46.31
2023-03-08T01:36:28.407Z,46.37
2023-03-08T01:38:55.284Z,46.68
2023-03-08T01:41:28.925Z,46.68
2023-03-08T01:43:55.835Z,46.75
2023-03-08T01:46:30.833Z,46.84
2023-03-08T01:49:19.468Z,46.96
2023-03-08T01:51:49.214Z,47.06
2023-03-08T01:54:37.367Z,47.28
2023-03-08T01:57:12.074Z,47.19
2023-03-08T01:59:39.730Z,47.44
2023-03-08T02:02:07.053Z,47.38
2023-03-08T02:04:34.823Z,47.43
2023-03-08T02:07:01.798Z,47.52
2023-03-08T02:09:29.062Z,47.53
2023-03-08T02:12:01.783Z,47.63
2023-03-08T02:14:30.089Z,47.66
2023-03-08T02:16:57.046Z,47.77
2023-03-08T02:19:33.357Z,47.80
2023-03-08T02:22:08.281Z,47.80
2023-03-08T02:24:35.058Z,47.88
2023-03-08T02:27:07.165Z,48.05
2023-03-08T02:29:34.435Z,47.98
2023-03-08T02:32:01.475Z,48.04
2023-03-08T02:34:29.712Z,47.95
2023-03-08T02:36:57.809Z,48.10
2023-03-08T02:39:24.862Z,48.23
2023-03-08T02:41:55.081Z,48.22
2023-03-08T02:44:21.938Z,48.36
2023-03-08T02:46:49.086Z,48.31
2023-03-08T02:49:15.997Z,48.43
2023-03-08T02:51:42.932Z,48.45
2023-03-08T02:54:09.853Z,48.56
2023-03-08T02:56:37.484Z,48.60
2023-03-08T02:59:05.681Z,48.29
2023-03-08T03:01:32.640Z,48.49
2023-03-08T03:03:59.753Z,48.42
2023-03-08T03:06:26.612Z,48.30
2023-03-08T03:08:55.619Z,48.45
2023-03-08T03:11:23.199Z,48.65
2023-03-08T03:14:01.366Z,48.75
2023-03-08T03:16:32.810Z,48.75
2023-03-08T03:19:00.699Z,48.85
2023-03-08T03:21:27.797Z,49.08
2023-03-08T03:23:55.560Z,49.15
2023-03-08T03:26:27.185Z,49.27
2023-03-08T03:28:57.727Z,49.12
2023-03-08T03:31:26.581Z,49.35
2023-03-08T03:33:53.652Z,49.41
2023-03-08T03:36:23.766Z,49.49
2023-03-08T03:38:51.597Z,49.59
2023-03-08T03:41:21.720Z,49.54
2023-03-08T03:43:51.367Z,49.54
2023-03-08T03:46:20.625Z,49.60
2023-03-08T03:48:49.592Z,49.71
2023-03-08T03:51:20.820Z,49.76
2023-03-08T03:53:50.863Z,49.94
2023-03-08T03:56:23.820Z,49.97
2023-03-08T04:15:13.123Z,50.54
2023-03-08T04:17:39.948Z,50.56
2023-03-08T04:20:07.516Z,50.59
2023-03-08T04:22:37.426Z,50.60
2023-03-08T04:25:10.415Z,50.67
2023-03-08T04:27:45.426Z,50.84
2023-03-08T04:30:13.484Z,50.79
2023-03-08T04:32:40.485Z,50.75
2023-03-08T04:35:07.833Z,50.89
2023-03-08T04:37:37.141Z,50.95
2023-03-08T04:40:09.461Z,50.82
2023-03-08T04:42:41.090Z,50.94
2023-03-08T04:45:09.034Z,50.96
2023-03-08T04:47:36.232Z,50.86
2023-03-08T04:50:03.519Z,50.99
2023-03-08T04:52:30.429Z,50.90
2023-03-08T04:54:58.025Z,51.12
2023-03-08T04:57:26.287Z,51.15
2023-03-08T04:59:55.423Z,51.16
2023-03-08T05:02:23.695Z,51.15
2023-03-08T05:04:51.061Z,51.02
2023-03-08T05:07:18.161Z,50.96
2023-03-08T05:09:45.430Z,50.90
2023-03-08T05:12:13.299Z,51.05
2023-03-08T05:14:59.852Z,51.23
2023-03-08T05:17:27.137Z,51.20
2023-03-08T05:19:54.015Z,51.19
2023-03-08T05:22:24.918Z,50.97
2023-03-08T05:24:54.884Z,50.92
2023-03-08T05:27:21.778Z,50.75
2023-03-08T05:29:51.900Z,50.17
2023-03-08T05:32:18.893Z,49.42
2023-03-08T05:34:46.100Z,49.11
2023-03-08T05:37:17.080Z,48.56
2023-03-08T05:39:44.187Z,48.02
2023-03-08T05:42:20.531Z,47.76
2023-03-08T05:44:47.596Z,47.88
2023-03-08T05:47:18.114Z,47.80
2023-03-08T05:49:44.910Z,47.84
2023-03-08T05:52:11.920Z,47.91
2023-03-08T05:54:39.722Z,48.02
2023-03-08T05:57:10.268Z,48.15
2023-03-08T05:59:37.509Z,48.15
2023-03-08T06:02:05.022Z,48.14
2023-03-08T06:04:52.157Z,47.88
2023-03-08T06:07:21.172Z,47.35
2023-03-08T06:09:54.847Z,46.67
2023-03-08T06:12:22.980Z,45.32
2023-03-08T06:14:52.414Z,44.08
2023-03-08T06:17:20.113Z,43.00
2023-03-08T06:19:49.102Z,41.30
2023-03-08T06:22:17.305Z,40.23
2023-03-08T06:24:44.886Z,39.28
2023-03-08T06:27:12.342Z,38.18
2023-03-08T06:29:39.756Z,37.30
2023-03-08T06:32:07.452Z,36.65
2023-03-08T06:34:35.834Z,36.07
2023-03-08T06:37:02.922Z,35.65
2023-03-08T06:39:31.699Z,34.93
2023-03-08T06:41:59.178Z,34.53
2023-03-08T06:44:26.200Z,34.04
2023-03-08T06:46:53.343Z,33.42
2023-03-08T06:49:21.588Z,32.64
2023-03-08T06:51:48.607Z,32.04
2023-03-08T06:54:17.685Z,31.51
2023-03-08T06:56:47.769Z,30.70
2023-03-08T06:59:14.663Z,29.88
2023-03-08T07:01:41.934Z,29.20
2023-03-08T07:04:08.743Z,28.21
2023-03-08T07:06:35.816Z,27.58
2023-03-08T07:09:02.800Z,26.87
2023-03-08T07:11:31.405Z,25.92
2023-03-08T07:13:59.374Z,25.04
2023-03-08T07:16:27.233Z,24.39
2023-03-08T07:18:54.143Z,23.94
2023-03-08T07:21:40.988Z,23.34
2023-03-08T07:24:11.581Z,23.19
2023-03-08T07:26:38.680Z,23.70
2023-03-08T07:29:05.888Z,24.11
2023-03-08T07:31:36.269Z,24.33
2023-03-08T07:34:04.352Z,24.52
2023-03-08T07:36:31.158Z,24.74
2023-03-08T07:39:01.116Z,25.01
2023-03-08T07:41:30.610Z,25.36
2023-03-08T07:43:57.507Z,25.61
2023-03-08T07:46:26.431Z,25.93
2023-03-08T07:48:55.357Z,26.22
2023-03-08T07:51:22.696Z,26.32
2023-03-08T07:53:49.521Z,26.14
2023-03-08T07:56:16.334Z,26.33
2023-03-08T07:58:43.161Z,26.37
2023-03-08T08:01:11.744Z,26.29
2023-03-08T08:03:39.462Z,26.32
2023-03-08T08:06:07.208Z,26.42
2023-03-08T08:08:34.101Z,26.76
2023-03-08T08:11:01.356Z,27.12
2023-03-08T08:13:28.239Z,27.37
2023-03-08T08:16:02.804Z,27.61
2023-03-08T08:18:29.675Z,28.49
2023-03-08T08:21:07.805Z,28.61
2023-03-08T08:23:35.304Z,28.97
2023-03-08T08:26:07.350Z,29.40
2023-03-08T08:28:34.716Z,29.55
2023-03-08T08:31:05.074Z,29.99
2023-03-08T08:33:33.224Z,30.09
2023-03-08T08:36:00.773Z,30.04
2023-03-08T08:38:27.582Z,29.83
2023-03-08T08:40:54.377Z,29.63
2023-03-08T08:43:21.200Z,29.39
2023-03-08T08:45:53.318Z,29.37
2023-03-08T08:48:20.182Z,29.11
2023-03-08T08:50:47.125Z,28.70
2023-03-08T08:53:14.147Z,28.26
2023-03-08T08:55:42.181Z,28.18
2023-03-08T08:58:10.013Z,28.17
2023-03-08T09:00:37.034Z,28.20
2023-03-08T09:03:05.694Z,28.28
2023-03-08T09:05:33.996Z,28.53
2023-03-08T09:08:01.701Z,28.76
2023-03-08T09:10:30.375Z,28.98
2023-03-08T09:12:59.099Z,29.10
2023-03-08T09:15:26.984Z,29.50
2023-03-08T09:17:54.201Z,29.70
2023-03-08T09:20:23.307Z,30.06
2023-03-08T09:22:50.434Z,30.36
2023-03-08T09:25:19.703Z,30.53
2023-03-08T09:27:48.851Z,30.87
2023-03-08T09:30:17.613Z,30.77
2023-03-08T09:32:44.595Z,30.95
2023-03-08T09:35:11.495Z,31.20
2023-03-08T09:37:38.343Z,31.30
2023-03-08T09:40:09.742Z,31.50
2023-03-08T09:42:38.353Z,31.55
2023-03-08T09:45:13.997Z,31.30
2023-03-08T09:48:08.515Z,31.58
2023-03-08T09:50:51.205Z,32.00
2023-03-08T09:53:26.915Z,31.71
2023-03-08T09:56:01.979Z,31.83
2023-03-08T09:58:38.793Z,31.80
2023-03-08T10:01:24.124Z,31.79
2023-03-08T10:04:14.411Z,31.78
2023-03-08T10:07:18.533Z,31.76
2023-03-08T10:09:53.188Z,31.80
2023-03-08T10:12:51.591Z,31.84
2023-03-08T10:15:22.408Z,31.82
2023-03-08T10:18:30.982Z,31.74
2023-03-08T10:21:01.215Z,31.90
2023-03-08T10:23:35.117Z,31.81
2023-03-08T10:26:02.972Z,31.69
2023-03-08T10:28:29.861Z,31.91
2023-03-08T10:31:01.967Z,31.76
2023-03-08T10:33:34.525Z,31.76
2023-03-08T10:36:04.689Z,31.72
2023-03-08T10:38:34.126Z,31.59
2023-03-08T10:41:16.062Z,31.66
2023-03-08T10:43:52.152Z,31.49
2023-03-08T10:46:21.699Z,31.40
2023-03-08T10:48:49.233Z,31.30
2023-03-08T10:51:28.410Z,31.63
2023-03-08T10:54:00.617Z,31.66
2023-03-08T10:56:45.037Z,31.47
2023-03-08T10:59:39.273Z,31.57
2023-03-08T11:02:15.132Z,31.75
2023-03-08T11:04:56.886Z,31.79
2023-03-08T11:07:28.071Z,31.94
2023-03-08T11:10:18.069Z,32.06
2023-03-08T11:12:46.133Z,32.06
2023-03-08T11:15:18.829Z,32.02
2023-03-08T11:18:24.460Z,31.96
2023-03-08T11:21:14.516Z,32.04
2023-03-08T11:23:46.904Z,31.92
2023-03-08T11:26:23.800Z,32.05
2023-03-08T11:29:10.404Z,32.05
2023-03-08T11:31:58.794Z,32.13
2023-03-08T11:34:46.372Z,31.95
2023-03-08T11:37:39.925Z,31.81
2023-03-08T11:40:19.373Z,31.98
2023-03-08T11:42:56.666Z,31.99
2023-03-08T11:45:34.450Z,31.47
2023-03-08T11:48:27.109Z,31.58
2023-03-08T11:51:06.420Z,31.52
2023-03-08T11:53:44.143Z,31.40
2023-03-08T11:56:27.121Z,31.08
2023-03-08T11:59:02.519Z,30.96
2023-03-08T12:01:45.906Z,30.65
2023-03-08T12:04:19.270Z,30.85
2023-03-08T12:06:47.419Z,30.60
2023-03-08T12:09:22.970Z,30.62
2023-03-08T12:11:53.495Z,30.63
2023-03-08T12:14:30.272Z,30.35
2023-03-08T12:17:10.184Z,30.50
2023-03-08T12:19:45.769Z,30.58
2023-03-08T12:22:34.093Z,30.64
2023-03-08T12:25:17.992Z,30.92
2023-03-08T12:27:49.323Z,30.88
2023-03-08T12:30:31.237Z,30.88
2023-03-08T12:33:00.358Z,30.95
2023-03-08T12:35:34.262Z,30.72
2023-03-08T12:38:42.501Z,30.71
2023-03-08T12:41:27.753Z,30.31
2023-03-08T12:44:01.441Z,30.23
2023-03-08T12:46:28.779Z,30.13
2023-03-08T12:48:56.469Z,30.19
2023-03-08T12:51:33.974Z,30.07
2023-03-08T12:54:05.182Z,30.17
2023-03-08T12:56:37.390Z,30.02
2023-03-08T12:59:36.039Z,29.51
2023-03-08T13:02:23.085Z,29.59
2023-03-08T13:04:50.030Z,29.86
2023-03-08T13:07:28.688Z,29.73
2023-03-08T13:10:20.169Z,29.91
2023-03-08T13:13:26.753Z,29.90
2023-03-08T13:16:24.603Z,29.73
2023-03-08T13:19:16.696Z,29.87
2023-03-08T13:22:07.994Z,29.85
2023-03-08T13:24:56.981Z,29.90
2023-03-08T13:27:32.599Z,29.86
2023-03-08T13:30:31.367Z,29.87
2023-03-08T13:32:59.278Z,29.61
2023-03-08T13:35:26.732Z,29.64
2023-03-08T13:37:56.685Z,29.66
2023-03-08T13:40:24.180Z,29.89
2023-03-08T13:42:58.142Z,29.91
2023-03-08T13:45:25.796Z,29.92
2023-03-08T13:47:55.787Z,29.94
2023-03-08T13:50:43.419Z,29.73
2023-03-08T13:53:17.501Z,29.98
2023-03-08T13:55:46.812Z,30.15
2023-03-08T13:58:35.181Z,30.18
2023-03-08T14:01:04.435Z,30.00
2023-03-08T14:03:33.086Z,30.14
2023-03-08T14:06:00.122Z,30.33
2023-03-08T14:08:28.259Z,30.42
2023-03-08T14:11:06.637Z,30.43
2023-03-08T14:13:38.587Z,30.44
2023-03-08T14:16:07.782Z,30.57
2023-03-08T14:18:40.652Z,30.84
2023-03-08T14:21:19.277Z,30.98
2023-03-08T14:23:55.867Z,31.12
2023-03-08T14:26:38.892Z,31.24
2023-03-08T14:29:23.670Z,31.33
2023-03-08T14:32:01.463Z,31.41
2023-03-08T14:34:39.268Z,31.47
2023-03-08T14:37:16.613Z,31.62
2023-03-08T14:39:46.261Z,31.82
2023-03-08T14:42:25.626Z,31.77
2023-03-08T14:44:57.993Z,31.75
2023-03-08T14:47:33.502Z,31.91
2023-03-08T14:50:07.038Z,31.96
2023-03-08T14:52:53.595Z,31.87
2023-03-08T14:55:25.430Z,32.02
2023-03-08T14:57:56.429Z,32.00
2023-03-08T15:03:10.812Z,31.72
2023-03-08T15:08:21.244Z,31.61
2023-03-08T15:10:49.298Z,31.72
2023-03-08T15:13:21.873Z,31.91
2023-03-08T15:15:50.080Z,32.09
2023-03-08T15:18:17.348Z,32.30
2023-03-08T15:20:49.397Z,32.22
2023-03-08T15:23:24.142Z,32.30
2023-03-08T15:25:51.258Z,32.48
2023-03-08T15:28:20.561Z,32.58
2023-03-08T15:30:47.719Z,32.62
2023-03-08T15:33:14.735Z,32.67
2023-03-08T15:35:42.177Z,32.78
2023-03-08T15:38:13.211Z,32.73
2023-03-08T15:40:41.440Z,32.84
2023-03-08T15:43:08.906Z,32.90
2023-03-08T15:45:36.619Z,32.90
2023-03-08T15:48:11.668Z,33.06
2023-03-08T15:50:39.760Z,33.11
2023-03-08T15:53:07.062Z,32.95
2023-03-08T15:55:34.069Z,33.13
2023-03-08T15:58:01.053Z,33.21
2023-03-08T16:00:28.606Z,33.26
2023-03-08T16:02:55.970Z,33.38
2023-03-08T16:05:25.155Z,33.38
2023-03-08T16:07:57.222Z,33.52
2023-03-08T16:10:24.203Z,33.50
2023-03-08T16:12:51.239Z,33.67
2023-03-08T16:15:18.524Z,33.57
2023-03-08T16:17:45.502Z,33.67
2023-03-08T16:20:14.244Z,33.68
2023-03-08T16:22:41.571Z,33.79
2023-03-08T16:25:10.016Z,33.75
2023-03-08T16:27:38.295Z,33.85
2023-03-08T16:30:06.171Z,34.06
2023-03-08T16:32:33.340Z,34.20
2023-03-08T16:35:01.081Z,34.37
2023-03-08T16:37:28.395Z,34.36
2023-03-08T16:39:57.678Z,34.38
2023-03-08T16:42:25.209Z,34.54
2023-03-08T16:44:55.215Z,34.69
2023-03-08T16:47:23.972Z,34.72
2023-03-08T16:49:51.005Z,34.85
2023-03-08T16:52:18.410Z,34.91
2023-03-08T16:54:45.838Z,34.97
2023-03-08T16:57:19.862Z,34.97
2023-03-08T16:59:48.048Z,35.16
2023-03-08T17:02:17.806Z,35.44
2023-03-08T17:04:45.479Z,35.50
2023-03-08T17:07:13.117Z,35.51
2023-03-08T17:09:40.240Z,35.66
2023-03-08T17:12:08.691Z,35.69
2023-03-08T17:14:36.821Z,35.66
2023-03-08T17:17:05.167Z,35.82
2023-03-08T17:19:32.563Z,35.93
2023-03-08T17:21:59.642Z,35.97
2023-03-08T17:24:28.333Z,35.98
2023-03-08T17:26:55.515Z,36.07
2023-03-08T17:29:22.614Z,36.17
2023-03-08T17:31:49.942Z,36.34
2023-03-08T17:34:17.026Z,36.45
2023-03-08T17:36:46.745Z,36.38
2023-03-08T17:39:14.354Z,36.58
2023-03-08T17:41:42.945Z,36.56
2023-03-08T17:44:09.807Z,36.67
2023-03-08T17:46:36.678Z,36.74
2023-03-08T17:49:03.934Z,36.93
2023-03-08T17:51:32.123Z,36.96
2023-03-08T17:54:01.213Z,36.94
2023-03-08T17:56:30.715Z,37.16
2023-03-08T17:58:59.934Z,37.30
2023-03-08T18:01:30.188Z,37.38
2023-03-08T18:03:58.124Z,37.57
2023-03-08T18:06:29.630Z,37.53
2023-03-08T18:09:01.365Z,37.65
2023-03-08T18:11:28.628Z,37.67
2023-03-08T18:13:56.393Z,37.77
2023-03-08T18:16:24.522Z,37.74
2023-03-08T18:18:51.822Z,37.75
2023-03-08T18:21:20.410Z,37.89
2023-03-08T18:23:47.726Z,38.03
2023-03-08T18:26:16.530Z,37.96
2023-03-08T18:28:43.433Z,37.93
2023-03-08T18:31:13.814Z,38.09
2023-03-08T18:33:41.170Z,38.02
2023-03-08T18:36:08.602Z,37.82
2023-03-08T18:38:35.532Z,37.75
2023-03-08T18:41:25.512Z,37.63
2023-03-08T18:43:54.684Z,37.61
2023-03-08T18:46:28.645Z,37.45
2023-03-08T18:49:00.850Z,37.66
2023-03-08T18:51:28.860Z,37.91
2023-03-08T18:53:56.638Z,37.81
2023-03-08T18:56:25.898Z,37.81
2023-03-08T18:58:54.230Z,37.92
2023-03-08T19:01:22.161Z,38.03
2023-03-08T19:03:49.101Z,37.88
2023-03-08T19:06:16.219Z,37.83
2023-03-08T19:08:43.207Z,37.83
2023-03-08T19:11:12.278Z,37.82
2023-03-08T19:13:40.078Z,37.70
2023-03-08T19:16:20.890Z,37.78
2023-03-08T19:18:51.101Z,37.62
2023-03-08T19:21:27.133Z,37.46
2023-03-08T19:23:57.070Z,37.64
2023-03-08T19:26:39.753Z,37.47
2023-03-08T19:29:21.416Z,37.51
2023-03-08T19:31:51.315Z,37.64
2023-03-08T19:34:20.138Z,37.50
2023-03-08T19:36:48.288Z,37.66
2023-03-08T19:39:20.038Z,37.55
2023-03-08T19:41:55.461Z,37.74
2023-03-08T19:44:22.930Z,37.84
2023-03-08T19:46:50.646Z,37.75
2023-03-08T19:49:20.318Z,37.81
2023-03-08T19:51:50.719Z,38.00
2023-03-08T19:54:18.255Z,38.22
2023-03-08T19:56:45.242Z,38.47
2023-03-08T19:59:12.568Z,38.33
2023-03-08T20:01:40.452Z,38.18
2023-03-08T20:04:08.620Z,38.03
2023-03-08T20:06:41.460Z,38.03
2023-03-08T20:09:10.805Z,38.05
2023-03-08T20:11:38.385Z,38.02
2023-03-08T20:14:05.228Z,37.97
2023-03-08T20:16:32.330Z,38.05
2023-03-08T20:18:59.306Z,37.88
2023-03-08T20:21:29.694Z,38.04
2023-03-08T20:23:59.413Z,38.11
2023-03-08T20:26:31.549Z,38.04
2023-03-08T20:28:59.079Z,37.98
2023-03-08T20:31:27.753Z,38.13
2023-03-08T20:33:57.491Z,38.28
2023-03-08T20:36:24.953Z,38.43
2023-03-08T20:38:52.430Z,38.46
2023-03-08T20:41:20.999Z,38.49
2023-03-08T20:43:49.954Z,38.52
2023-03-08T20:46:19.289Z,38.52
2023-03-08T20:48:46.597Z,38.47
2023-03-08T20:51:16.664Z,38.56
2023-03-08T20:53:43.891Z,38.54
2023-03-08T20:56:15.062Z,38.52
2023-03-08T20:58:42.653Z,38.57
2023-03-08T21:01:12.107Z,38.50
2023-03-08T21:03:48.132Z,38.56
2023-03-08T21:06:18.883Z,38.68
2023-03-08T21:08:46.485Z,38.85
2023-03-08T21:11:13.408Z,38.81
2023-03-08T21:13:40.743Z,38.93
2023-03-08T21:16:11.473Z,38.97
2023-03-08T21:18:38.445Z,39.15
2023-03-08T21:21:05.603Z,39.14
2023-03-08T21:23:32.455Z,39.20
2023-03-08T21:26:01.170Z,39.18
2023-03-08T21:28:27.991Z,39.20
2023-03-08T21:30:54.970Z,39.25
2023-03-08T21:33:21.872Z,39.36
2023-03-08T21:35:48.633Z,39.56
2023-03-08T21:38:15.405Z,39.43
2023-03-08T21:40:45.468Z,39.50
2023-03-08T21:43:12.161Z,39.49
2023-03-08T21:45:41.433Z,39.50
2023-03-08T21:48:11.963Z,39.61
2023-03-08T21:50:40.164Z,39.58
2023-03-08T21:53:08.264Z,39.62
2023-03-08T21:55:39.598Z,39.64
2023-03-08T21:58:07.237Z,39.59
2023-03-08T22:00:34.646Z,39.53
2023-03-08T22:03:01.473Z,39.56
2023-03-08T22:05:29.779Z,39.67
2023-03-08T22:07:56.623Z,39.69
2023-03-08T22:10:23.416Z,39.69
2023-03-08T22:12:50.228Z,39.71
2023-03-08T22:15:17.073Z,39.70
2023-03-08T22:17:44.165Z,39.80
2023-03-08T22:20:12.449Z,39.88
2023-03-08T22:22:40.145Z,39.95
2023-03-08T22:25:08.513Z,40.07
2023-03-08T22:27:35.424Z,40.10
2023-03-08T22:30:03.002Z,40.12
2023-03-08T22:32:29.800Z,40.21
2023-03-08T22:34:57.162Z,40.24
2023-03-08T22:37:23.918Z,40.35
2023-03-08T22:39:50.833Z,40.40
2023-03-08T22:42:17.633Z,40.38
2023-03-08T22:44:44.446Z,40.50
2023-03-08T22:47:11.188Z,40.55
2023-03-08T22:49:43.610Z,40.50
2023-03-08T22:52:10.292Z,40.76
2023-03-08T22:54:37.402Z,40.86
2023-03-08T22:57:04.414Z,41.01
2023-03-08T22:59:31.194Z,41.08
2023-03-08T23:01:58.049Z,41.19
2023-03-08T23:04:24.912Z,41.13
2023-03-08T23:06:51.914Z,41.34
2023-03-08T23:09:18.786Z,41.53
2023-03-08T23:11:46.540Z,41.57
2023-03-08T23:14:13.344Z,41.59
2023-03-08T23:16:42.714Z,41.62
2023-03-08T23:19:15.950Z,41.62
2023-03-08T23:21:44.638Z,41.62
2023-03-08T23:24:12.533Z,41.56
2023-03-08T23:26:40.044Z,41.42
2023-03-08T23:29:07.537Z,41.52
2023-03-08T23:31:36.980Z,41.48
2023-03-08T23:34:05.680Z,41.40
2023-03-08T23:36:34.026Z,41.43
2023-03-08T23:39:04.376Z,41.53
2023-03-08T23:41:32.312Z,41.66
2023-03-08T23:44:01.506Z,41.75
2023-03-08T23:46:29.062Z,41.66
2023-03-08T23:48:57.945Z,41.76
2023-03-08T23:51:27.116Z,41.86
2023-03-08T23:53:56.334Z,41.77
2023-03-08T23:56:30.914Z,41.83
2023-03-08T23:59:01.235Z,41.91
